createdAt,value
2017-11-11T00:00:17.194Z,8.80
2017-11-11T00:02:44.831Z,9.20
2017-11-11T00:05:12.414Z,9.30
2017-11-11T00:07:40.052Z,9.80
2017-11-11T00:10:07.628Z,9.10
2017-11-11T00:12:35.273Z,9.00
2017-11-11T00:15:02.882Z,8.70
2017-11-11T00:17:30.473Z,9.10
2017-11-11T00:19:58.125Z,9.30
2017-11-11T00:22:26.016Z,8.50
2017-11-11T00:24:53.657Z,9.40
2017-11-11T00:27:21.252Z,8.27
2017-11-11T00:29:48.847Z,9.20
2017-11-11T00:32:16.471Z,8.40
2017-11-11T00:34:44.058Z,9.83
2017-11-11T00:37:11.727Z,8.73
2017-11-11T00:39:39.313Z,9.00
2017-11-11T00:42:07.280Z,8.50
2017-11-11T00:44:34.926Z,8.70
2017-11-11T00:47:02.551Z,8.90
2017-11-11T00:49:30.215Z,8.60
2017-11-11T00:51:57.824Z,8.20
2017-11-11T00:54:25.458Z,8.60
2017-11-11T00:56:53.387Z,8.50
2017-11-11T00:59:20.987Z,8.40
2017-11-11T01:01:48.623Z,8.30
2017-11-11T01:04:17.098Z,8.00
2017-11-11T01:06:44.690Z,8.93
2017-11-11T01:09:12.314Z,8.50
2017-11-11T01:11:40.289Z,8.80
2017-11-11T01:14:07.947Z,8.00
2017-11-11T01:16:35.544Z,8.40
2017-11-11T01:19:03.160Z,8.60
2017-11-11T01:21:30.796Z,8.30
2017-11-11T01:23:58.381Z,8.57
2017-11-11T01:26:26.021Z,8.50
2017-11-11T01:28:53.685Z,8.43
2017-11-11T01:31:21.282Z,8.40
2017-11-11T01:33:48.975Z,9.10
2017-11-11T01:36:16.567Z,8.90
2017-11-11T01:38:44.199Z,8.90
2017-11-11T01:41:11.841Z,8.27
2017-11-11T01:43:39.445Z,8.80
2017-11-11T01:46:07.111Z,8.90
2017-11-11T01:48:34.716Z,9.00
2017-11-11T01:51:02.346Z,8.83
2017-11-11T01:53:29.916Z,8.47
2017-11-11T01:55:57.491Z,8.40
2017-11-11T01:58:25.122Z,8.70
2017-11-11T02:00:52.789Z,8.70
2017-11-11T02:03:20.454Z,9.30
2017-11-11T02:05:48.154Z,8.70
2017-11-11T02:08:16.026Z,8.83
2017-11-11T02:10:43.647Z,8.80
2017-11-11T02:13:11.233Z,9.60
2017-11-11T02:15:38.894Z,9.40
2017-11-11T02:18:06.531Z,8.87
2017-11-11T02:20:34.191Z,8.70
2017-11-11T02:23:01.823Z,9.40
2017-11-11T02:25:29.438Z,9.00
2017-11-11T02:27:57.079Z,9.70
2017-11-11T02:30:24.674Z,8.90
2017-11-11T02:32:52.286Z,9.40
2017-11-11T02:35:19.899Z,9.33
2017-11-11T02:37:47.507Z,8.73
2017-11-11T02:40:15.195Z,9.10
2017-11-11T02:42:42.808Z,8.70
2017-11-11T02:45:10.973Z,8.70
2017-11-11T02:47:38.841Z,8.20
2017-11-11T02:50:06.466Z,8.80
2017-11-11T02:52:34.160Z,8.50
2017-11-11T02:55:01.795Z,8.60
2017-11-11T02:57:29.430Z,8.80
2017-11-11T02:59:57.049Z,8.57
2017-11-11T03:02:24.633Z,9.23
2017-11-11T03:04:52.586Z,8.70
2017-11-11T03:07:20.198Z,9.50
2017-11-11T03:09:47.802Z,8.60
2017-11-11T03:12:15.447Z,8.90
2017-11-11T03:14:43.660Z,8.37
2017-11-11T03:17:11.337Z,8.03
2017-11-11T03:19:38.965Z,8.33
2017-11-11T03:22:06.846Z,8.53
2017-11-11T03:24:34.463Z,8.83
2017-11-11T03:27:02.046Z,8.57
2017-11-11T03:29:29.683Z,8.70
2017-11-11T03:31:57.269Z,8.90
2017-11-11T03:34:24.887Z,8.20
2017-11-11T03:36:52.817Z,9.20
2017-11-11T03:39:20.408Z,8.43
2017-11-11T03:41:48.052Z,8.30
2017-11-11T03:44:15.642Z,9.00
2017-11-11T03:46:43.227Z,9.97
2017-11-11T03:49:11.342Z,9.50
2017-11-11T03:51:38.930Z,8.70
2017-11-11T03:54:07.100Z,8.40
2017-11-11T03:56:34.693Z,8.70
2017-11-11T03:59:02.291Z,8.80
2017-11-11T04:01:29.913Z,9.00
2017-11-11T04:03:57.544Z,8.80
2017-11-11T04:06:25.166Z,8.77
2017-11-11T04:08:52.747Z,9.07
2017-11-11T04:11:20.724Z,10.17
2017-11-11T04:13:48.353Z,8.53
2017-11-11T04:16:16.255Z,9.40
2017-11-11T04:18:43.897Z,9.63
2017-11-11T04:21:11.475Z,9.20
2017-11-11T04:23:39.071Z,9.37
2017-11-11T04:26:06.692Z,9.53
2017-11-11T04:28:34.297Z,9.40
2017-11-11T04:31:01.914Z,9.77
2017-11-11T04:33:29.537Z,10.10
2017-11-11T04:35:57.118Z,9.20
2017-11-11T04:38:25.218Z,9.80
2017-11-11T04:40:52.814Z,9.70
2017-11-11T04:43:20.745Z,9.23
2017-11-11T04:45:48.342Z,9.00
2017-11-11T04:48:15.958Z,9.60
2017-11-11T04:50:43.563Z,9.60
2017-11-11T04:53:11.159Z,9.23
2017-11-11T04:55:38.795Z,9.50
2017-11-11T04:58:06.377Z,9.10
2017-11-11T05:00:33.975Z,10.40
2017-11-11T05:03:01.651Z,9.27
2017-11-11T05:05:29.241Z,9.50
2017-11-11T05:07:56.876Z,9.83
2017-11-11T05:10:24.738Z,10.00
2017-11-11T05:12:52.327Z,9.90
2017-11-11T05:15:19.956Z,8.93
2017-11-11T05:17:47.558Z,9.67
2017-11-11T05:20:15.191Z,9.10
2017-11-11T05:22:42.778Z,9.00
2017-11-11T05:25:10.366Z,9.50
2017-11-11T05:27:37.994Z,9.10
2017-11-11T05:30:05.573Z,9.70
2017-11-11T05:32:33.199Z,9.20
2017-11-11T05:35:00.780Z,9.00
2017-11-11T05:37:28.372Z,9.70
2017-11-11T05:39:56.282Z,9.20
2017-11-11T05:42:23.869Z,9.20
2017-11-11T05:44:51.542Z,9.70
2017-11-11T05:47:19.187Z,9.20
2017-11-11T05:49:46.778Z,9.10
2017-11-11T05:52:15.017Z,9.00
2017-11-11T05:54:42.899Z,10.50
2017-11-11T05:57:10.550Z,10.00
2017-11-11T05:59:38.329Z,10.30
2017-11-11T06:02:06.281Z,9.70
2017-11-11T06:04:34.353Z,9.57
2017-11-11T06:07:01.938Z,9.77
2017-11-11T06:09:29.538Z,10.00
2017-11-11T06:11:57.146Z,9.83
2017-11-11T06:14:24.748Z,9.40
2017-11-11T06:16:52.356Z,9.80
2017-11-11T06:19:20.003Z,9.53
2017-11-11T06:21:47.594Z,9.77
2017-11-11T06:24:15.445Z,9.60
2017-11-11T06:26:43.070Z,10.00
2017-11-11T06:29:10.659Z,9.57
2017-11-11T06:31:38.241Z,9.67
2017-11-11T06:34:05.860Z,9.90
2017-11-11T06:36:33.578Z,9.27
2017-11-11T06:39:01.223Z,10.00
2017-11-11T06:41:29.330Z,9.70
2017-11-11T06:43:56.924Z,10.33
2017-11-11T06:46:24.575Z,9.30
2017-11-11T06:48:52.197Z,9.53
2017-11-11T06:51:19.870Z,10.13
2017-11-11T06:53:48.022Z,9.70
2017-11-11T06:56:15.618Z,9.10
2017-11-11T06:58:43.275Z,9.13
2017-11-11T07:01:10.893Z,10.17
2017-11-11T07:03:38.512Z,9.67
2017-11-11T07:06:06.126Z,10.00
2017-11-11T07:08:33.749Z,9.50
2017-11-11T07:11:01.408Z,9.20
2017-11-11T07:13:29.049Z,10.23
2017-11-11T07:15:56.694Z,8.80
2017-11-11T07:18:24.282Z,9.83
2017-11-11T07:20:51.890Z,9.07
2017-11-11T07:23:19.506Z,9.73
2017-11-11T07:25:47.182Z,10.03
2017-11-11T07:28:14.814Z,9.87
2017-11-11T07:30:42.408Z,9.67
2017-11-11T07:33:10.009Z,9.00
2017-11-11T07:35:37.727Z,8.90
2017-11-11T07:38:05.357Z,9.83
2017-11-11T07:40:32.988Z,9.97
2017-11-11T07:43:00.578Z,9.57
2017-11-11T07:45:28.192Z,9.40
2017-11-11T07:47:55.868Z,9.97
2017-11-11T07:50:23.457Z,9.73
2017-11-11T07:52:51.146Z,9.67
2017-11-11T07:55:18.983Z,9.37
2017-11-11T07:57:46.601Z,10.10
2017-11-11T08:00:14.276Z,9.33
2017-11-11T08:02:41.898Z,10.10
2017-11-11T08:05:09.583Z,9.57
2017-11-11T08:07:37.193Z,9.83
2017-11-11T08:10:04.810Z,9.57
2017-11-11T08:12:32.474Z,10.20
2017-11-11T08:15:00.102Z,9.80
2017-11-11T08:17:27.736Z,9.53
2017-11-11T08:19:55.350Z,9.73
2017-11-11T08:22:22.995Z,10.37
2017-11-11T08:24:50.621Z,10.60
2017-11-11T08:27:18.819Z,9.90
2017-11-11T08:29:48.555Z,9.80
2017-11-11T08:32:16.395Z,10.13
2017-11-11T08:34:43.988Z,10.43
2017-11-11T08:37:11.635Z,10.37
2017-11-11T08:39:39.234Z,10.03
2017-11-11T08:42:07.184Z,10.50
2017-11-11T08:44:34.838Z,10.17
2017-11-11T08:47:02.452Z,9.70
2017-11-11T08:49:30.098Z,9.77
2017-11-11T08:51:57.703Z,10.53
2017-11-11T08:54:25.663Z,9.83
2017-11-11T08:56:53.292Z,10.23
2017-11-11T08:59:20.926Z,9.70
2017-11-11T09:01:48.861Z,10.00
2017-11-11T09:04:16.726Z,9.83
2017-11-11T09:06:44.357Z,10.43
2017-11-11T09:09:11.959Z,9.63
2017-11-11T09:11:39.562Z,10.03
2017-11-11T09:14:07.248Z,11.60
2017-11-11T09:16:34.842Z,10.23
2017-11-11T09:19:02.540Z,10.47
2017-11-11T09:21:30.141Z,9.53
2017-11-11T09:24:03.332Z,10.03
2017-11-11T09:26:32.708Z,10.13
2017-11-11T09:29:00.369Z,9.50
2017-11-11T09:31:28.021Z,9.30
2017-11-11T09:33:55.645Z,10.60
2017-11-11T09:36:23.288Z,9.90
2017-11-11T09:38:50.941Z,9.57
2017-11-11T09:41:18.541Z,9.60
2017-11-11T09:43:46.169Z,9.77
2017-11-11T09:46:13.763Z,9.43
2017-11-11T09:48:41.396Z,9.83
2017-11-11T09:51:09.013Z,10.37
2017-11-11T09:53:36.625Z,10.10
2017-11-11T09:56:04.313Z,9.80
2017-11-11T09:58:31.923Z,9.30
2017-11-11T10:00:59.553Z,10.30
2017-11-11T10:03:27.301Z,9.87
2017-11-11T10:05:54.938Z,10.30
2017-11-11T10:08:22.584Z,10.60
2017-11-11T10:10:50.344Z,10.60
2017-11-11T10:13:18.374Z,9.90
2017-11-11T10:15:46.002Z,9.50
2017-11-11T10:18:13.674Z,9.83
2017-11-11T10:20:42.175Z,9.53
2017-11-11T10:23:09.780Z,9.37
2017-11-11T10:25:37.377Z,9.70
2017-11-11T10:28:04.995Z,9.90
2017-11-11T10:30:32.594Z,9.73
2017-11-11T10:33:00.571Z,9.53
2017-11-11T10:35:28.187Z,9.17
2017-11-11T10:37:55.912Z,9.77
2017-11-11T10:40:23.567Z,9.47
2017-11-11T10:42:51.174Z,9.73
2017-11-11T10:45:18.893Z,9.53
2017-11-11T10:47:46.519Z,10.57
2017-11-11T10:50:14.117Z,10.70
2017-11-11T10:52:41.746Z,9.60
2017-11-11T10:55:09.387Z,10.80
2017-11-11T10:57:37.045Z,10.60
2017-11-11T11:00:05.012Z,10.60
2017-11-11T11:02:32.668Z,10.60
2017-11-11T11:05:00.359Z,10.83
2017-11-11T11:07:28.393Z,10.80
2017-11-11T11:09:56.056Z,11.20
2017-11-11T11:12:23.715Z,10.37
2017-11-11T11:14:51.335Z,11.10
2017-11-11T11:17:18.984Z,11.50
2017-11-11T11:19:46.632Z,10.30
2017-11-11T11:22:14.275Z,10.53
2017-11-11T11:24:41.943Z,10.70
2017-11-11T11:27:09.991Z,10.87
2017-11-11T11:29:37.664Z,11.10
2017-11-11T11:32:05.259Z,10.50
2017-11-11T11:34:33.209Z,11.37
2017-11-11T11:37:00.821Z,10.50
2017-11-11T11:39:28.527Z,10.43
2017-11-11T11:41:56.162Z,10.77
2017-11-11T11:44:23.749Z,9.70
2017-11-11T11:46:51.436Z,10.47
2017-11-11T11:49:19.040Z,10.43
2017-11-11T11:51:46.634Z,9.90
2017-11-11T11:54:14.294Z,11.60
2017-11-11T11:56:42.881Z,10.93
2017-11-11T11:59:10.613Z,10.50
2017-11-11T12:01:38.514Z,10.47
2017-11-11T12:04:06.286Z,9.80
2017-11-11T12:06:33.913Z,9.97
2017-11-11T12:09:01.667Z,9.60
2017-11-11T12:11:30.526Z,10.30
2017-11-11T12:13:58.274Z,10.17
2017-11-11T12:16:25.884Z,10.20
2017-11-11T12:18:53.523Z,10.60
2017-11-11T12:21:21.135Z,10.60
2017-11-11T12:23:48.845Z,10.40
2017-11-11T12:26:16.455Z,10.30
2017-11-11T12:28:44.128Z,10.40
2017-11-11T12:31:11.767Z,10.50
2017-11-11T12:33:39.971Z,10.30
2017-11-11T12:36:08.046Z,10.03
2017-11-11T12:38:35.666Z,10.63
2017-11-11T12:41:03.284Z,12.47
2017-11-11T12:43:31.445Z,10.60
2017-11-11T12:46:00.075Z,10.63
2017-11-11T12:48:27.715Z,9.97
2017-11-11T12:50:55.921Z,10.20
2017-11-11T12:53:23.538Z,10.40
2017-11-11T12:55:51.230Z,10.57
2017-11-11T12:58:18.834Z,11.17
2017-11-11T13:00:46.469Z,10.63
2017-11-11T13:03:14.135Z,11.63
2017-11-11T13:05:41.764Z,10.80
2017-11-11T13:08:09.457Z,11.03
2017-11-11T13:10:37.106Z,10.93
2017-11-11T13:13:04.754Z,11.10
2017-11-11T13:15:32.380Z,10.13
2017-11-11T13:18:00.042Z,10.00
2017-11-11T13:20:27.743Z,10.17
2017-11-11T13:22:55.446Z,10.43
2017-11-11T13:25:23.115Z,10.47
2017-11-11T13:27:51.135Z,10.73
2017-11-11T13:30:18.738Z,10.73
2017-11-11T13:32:46.408Z,10.67
2017-11-11T13:35:14.007Z,10.27
2017-11-11T13:37:41.633Z,10.63
2017-11-11T13:40:09.339Z,10.13
2017-11-11T13:42:36.926Z,10.00
2017-11-11T13:45:04.877Z,10.10
2017-11-11T13:47:32.530Z,10.00
2017-11-11T13:50:00.121Z,10.30
2017-11-11T13:52:28.058Z,10.40
2017-11-11T13:54:55.689Z,10.17
2017-11-11T13:57:23.283Z,10.10
2017-11-11T13:59:51.253Z,10.80
2017-11-11T14:02:18.865Z,11.20
2017-11-11T14:04:46.537Z,10.10
2017-11-11T14:07:14.128Z,9.73
2017-11-11T14:09:41.998Z,9.73
2017-11-11T14:12:09.623Z,9.50
2017-11-11T14:14:37.218Z,10.10
2017-11-11T14:17:04.875Z,10.00
2017-11-11T14:19:32.459Z,9.87
2017-11-11T14:22:00.043Z,9.77
2017-11-11T14:24:27.983Z,9.33
2017-11-11T14:26:55.565Z,9.83
2017-11-11T14:29:23.237Z,9.77
2017-11-11T14:31:50.840Z,10.17
2017-11-11T14:34:18.735Z,9.30
2017-11-11T14:36:46.359Z,9.20
2017-11-11T14:39:13.959Z,9.50
2017-11-11T14:41:42.334Z,9.37
2017-11-11T14:44:09.939Z,9.40
2017-11-11T14:46:37.550Z,9.63
2017-11-11T14:49:05.197Z,10.13
2017-11-11T14:51:33.099Z,9.87
2017-11-11T14:54:01.082Z,11.00
2017-11-11T14:56:28.678Z,10.30
2017-11-11T14:58:56.270Z,10.97
2017-11-11T15:01:24.158Z,10.30
2017-11-11T15:03:52.021Z,10.70
2017-11-11T15:06:19.671Z,10.60
2017-11-11T15:08:47.287Z,10.53
2017-11-11T15:11:14.884Z,13.70
2017-11-11T15:13:42.510Z,10.77
2017-11-11T15:16:10.111Z,10.80
2017-11-11T15:18:38.005Z,11.00
2017-11-11T15:21:05.874Z,11.23
2017-11-11T15:23:33.492Z,11.90
2017-11-11T15:26:01.449Z,11.93
2017-11-11T15:28:29.374Z,11.13
2017-11-11T15:30:57.258Z,11.33
2017-11-11T15:33:24.995Z,10.70
2017-11-11T15:35:52.592Z,11.20
2017-11-11T15:38:20.226Z,11.00
2017-11-11T15:40:47.810Z,11.27
2017-11-11T15:43:15.484Z,11.13
2017-11-11T15:45:43.530Z,10.77
2017-11-11T15:48:12.724Z,10.73
2017-11-11T15:50:40.366Z,10.90
2017-11-11T15:53:07.995Z,11.83
2017-11-11T15:55:35.650Z,10.53
2017-11-11T15:58:03.289Z,10.63
2017-11-11T16:00:30.909Z,10.90
2017-11-11T16:02:58.766Z,10.40
2017-11-11T16:05:26.359Z,10.37
2017-11-11T16:07:53.989Z,10.63
2017-11-11T16:10:21.894Z,10.43
2017-11-11T16:12:49.502Z,10.50
2017-11-11T16:15:17.169Z,10.80
2017-11-11T16:17:44.781Z,10.37
2017-11-11T16:20:12.757Z,10.80
2017-11-11T16:22:40.350Z,10.87
2017-11-11T16:25:07.952Z,10.67
2017-11-11T16:27:35.564Z,11.13
2017-11-11T16:30:03.149Z,11.70
2017-11-11T16:32:31.079Z,10.70
2017-11-11T16:34:58.702Z,10.77
2017-11-11T16:37:26.287Z,11.40
2017-11-11T16:39:53.895Z,11.00
2017-11-11T16:42:21.530Z,12.03
2017-11-11T16:44:49.164Z,11.67
2017-11-11T16:47:16.779Z,11.80
2017-11-11T16:49:44.716Z,11.30
2017-11-11T16:52:12.357Z,11.70
2017-11-11T16:54:39.942Z,12.20
2017-11-11T16:57:07.617Z,11.77
2017-11-11T16:59:35.262Z,12.20
2017-11-11T17:02:02.846Z,12.10
2017-11-11T17:04:30.456Z,12.43
2017-11-11T17:06:58.040Z,12.40
2017-11-11T17:09:25.681Z,13.30
2017-11-11T17:11:53.791Z,12.43
2017-11-11T17:14:21.449Z,12.80
2017-11-11T17:16:49.079Z,12.73
2017-11-11T17:19:16.975Z,12.77
2017-11-11T17:21:44.686Z,12.80
2017-11-11T17:24:12.313Z,12.90
2017-11-11T17:26:40.166Z,13.77
2017-11-11T17:29:07.819Z,12.37
2017-11-11T17:31:35.410Z,11.83
2017-11-11T17:34:03.034Z,11.67
2017-11-11T17:36:30.634Z,11.90
2017-11-11T17:38:58.266Z,12.17
2017-11-11T17:41:25.885Z,11.90
2017-11-11T17:43:53.481Z,12.10
2017-11-11T17:46:21.106Z,11.93
2017-11-11T17:48:49.051Z,10.93
2017-11-11T17:51:16.641Z,11.83
2017-11-11T17:53:44.261Z,12.03
2017-11-11T17:56:11.854Z,11.00
2017-11-11T17:58:39.490Z,11.00
2017-11-11T18:01:07.373Z,11.83
2017-11-11T18:03:34.973Z,10.83
2017-11-11T18:06:02.605Z,10.57
2017-11-11T18:08:30.207Z,10.70
2017-11-11T18:10:57.850Z,11.97
2017-11-11T18:13:25.477Z,11.10
2017-11-11T18:15:53.101Z,11.30
2017-11-11T18:18:20.729Z,10.50
2017-11-11T18:20:48.333Z,11.27
2017-11-11T18:23:16.022Z,10.87
2017-11-11T18:25:43.610Z,12.27
2017-11-11T18:28:11.206Z,10.93
2017-11-11T18:30:38.817Z,12.30
2017-11-11T18:33:06.915Z,11.63
2017-11-11T18:35:34.579Z,11.13
2017-11-11T18:38:02.274Z,12.83
2017-11-11T18:40:29.872Z,12.23
2017-11-11T18:42:57.512Z,12.87
2017-11-11T18:45:25.109Z,13.90
2017-11-11T18:47:52.732Z,11.13
2017-11-11T18:50:20.330Z,11.57
2017-11-11T18:52:47.914Z,11.90
2017-11-11T18:55:15.534Z,11.67
2017-11-11T18:57:43.113Z,11.83
2017-11-11T19:00:10.785Z,12.10
2017-11-11T19:02:38.385Z,12.17
2017-11-11T19:05:05.989Z,11.90
2017-11-11T19:07:33.754Z,12.60
2017-11-11T19:10:01.340Z,13.70
2017-11-11T19:12:28.999Z,12.30
2017-11-11T19:14:56.590Z,11.50
2017-11-11T19:17:24.190Z,11.33
2017-11-11T19:19:51.832Z,10.63
2017-11-11T19:22:19.433Z,11.43
2017-11-11T19:24:47.071Z,10.40
2017-11-11T19:27:14.921Z,10.80
2017-11-11T19:29:42.627Z,10.67
2017-11-11T19:32:10.369Z,11.00
2017-11-11T19:34:37.979Z,10.57
2017-11-11T19:37:05.640Z,9.80
2017-11-11T19:39:33.225Z,10.40
2017-11-11T19:42:00.809Z,10.80
2017-11-11T19:44:28.439Z,10.70
2017-11-11T19:46:56.036Z,10.07
2017-11-11T19:49:23.708Z,9.90
2017-11-11T19:51:51.340Z,10.30
2017-11-11T19:54:20.845Z,10.40
2017-11-11T19:56:48.534Z,10.73
2017-11-11T19:59:16.186Z,9.47
2017-11-11T20:01:43.857Z,10.30
2017-11-11T20:04:11.486Z,10.00
2017-11-11T20:06:39.087Z,9.00
2017-11-11T20:09:06.717Z,9.07
2017-11-11T20:11:34.300Z,9.00
2017-11-11T20:14:01.930Z,8.67
2017-11-11T20:16:29.550Z,8.30
2017-11-11T20:18:57.402Z,8.10
2017-11-11T20:21:25.015Z,8.57
2017-11-11T20:23:52.581Z,8.10
2017-11-11T20:26:20.210Z,8.20
2017-11-11T20:28:47.791Z,8.40
2017-11-11T20:31:15.454Z,8.43
2017-11-11T20:33:43.178Z,7.90
2017-11-11T20:36:10.801Z,8.03
2017-11-11T20:38:38.524Z,7.90
2017-11-11T20:41:06.137Z,8.60
2017-11-11T20:43:34.029Z,8.40
2017-11-11T20:46:01.753Z,8.60
2017-11-11T20:48:29.404Z,8.43
2017-11-11T20:50:57.003Z,8.33
2017-11-11T20:53:24.639Z,8.47
2017-11-11T20:55:52.301Z,8.33
2017-11-11T20:58:20.009Z,8.27
2017-11-11T21:00:47.669Z,8.80
2017-11-11T21:03:15.350Z,9.10
2017-11-11T21:05:43.756Z,8.60
2017-11-11T21:08:11.450Z,8.70
2017-11-11T21:10:39.084Z,8.70
2017-11-11T21:13:07.116Z,9.00
2017-11-11T21:15:34.726Z,9.37
2017-11-11T21:18:02.376Z,9.03
2017-11-11T21:20:30.020Z,9.60
2017-11-11T21:22:57.609Z,9.73
2017-11-11T21:25:25.244Z,10.00
2017-11-11T21:27:52.970Z,10.67
2017-11-11T21:30:20.578Z,10.67
2017-11-11T21:32:48.526Z,10.53
2017-11-11T21:35:16.126Z,10.93
2017-11-11T21:37:43.753Z,11.23
2017-11-11T21:40:11.351Z,11.20
2017-11-11T21:42:39.282Z,12.03
2017-11-11T21:45:06.890Z,11.67
2017-11-11T21:47:34.500Z,12.03
2017-11-11T21:50:02.204Z,11.80
2017-11-11T21:52:29.807Z,11.80
2017-11-11T21:54:57.405Z,12.40
2017-11-11T21:57:25.081Z,12.70
2017-11-11T21:59:52.725Z,12.20
2017-11-11T22:02:20.365Z,12.70
2017-11-11T22:04:48.309Z,13.30
2017-11-11T22:07:15.895Z,12.70
2017-11-11T22:09:43.785Z,12.47
2017-11-11T22:12:11.388Z,12.43
2017-11-11T22:14:39.020Z,12.83
2017-11-11T22:17:06.663Z,13.10
2017-11-11T22:19:34.642Z,12.63
2017-11-11T22:22:02.259Z,12.40
2017-11-11T22:24:29.978Z,12.50
2017-11-11T22:26:57.689Z,13.40
2017-11-11T22:29:25.347Z,12.47
2017-11-11T22:31:52.956Z,13.40
2017-11-11T22:34:20.731Z,13.03
2017-11-11T22:36:48.350Z,12.90
2017-11-11T22:39:15.993Z,13.07
2017-11-11T22:41:43.578Z,14.23
2017-11-11T22:44:11.176Z,13.00
2017-11-11T22:46:38.805Z,12.70
2017-11-11T22:49:06.410Z,12.80
2017-11-11T22:51:34.026Z,13.07
2017-11-11T22:54:01.634Z,12.67
2017-11-11T22:56:29.679Z,12.40
2017-11-11T22:58:57.299Z,12.87
2017-11-11T23:01:24.902Z,12.83
2017-11-11T23:03:52.537Z,12.43
2017-11-11T23:06:20.441Z,12.80
2017-11-11T23:08:48.022Z,12.40
2017-11-11T23:11:15.663Z,12.40
2017-11-11T23:13:43.255Z,12.60
2017-11-11T23:16:10.888Z,16.07
2017-11-11T23:18:38.501Z,13.67
2017-11-11T23:21:06.122Z,12.77
2017-11-11T23:23:34.087Z,13.13
2017-11-11T23:26:01.954Z,13.57
2017-11-11T23:28:29.599Z,13.77
2017-11-11T23:30:57.239Z,13.20
2017-11-11T23:33:24.850Z,13.80
2017-11-11T23:35:52.469Z,15.27
2017-11-11T23:38:20.108Z,13.63
2017-11-11T23:40:48.030Z,13.50
2017-11-11T23:43:15.650Z,13.60
2017-11-11T23:45:43.577Z,14.50
2017-11-11T23:48:11.177Z,15.50
2017-11-11T23:50:38.826Z,13.97
2017-11-11T23:53:06.495Z,13.70
2017-11-11T23:55:34.420Z,13.47
2017-11-11T23:58:02.056Z,13.90
